sensor_id;sensor_type;location;lat;lon;timestamp;P1;durP1;ratioP1;P2;durP2;ratioP2
4569;SDS011;2297;51.442;6.996;2023-07-13T00:01:54;9.93;;;1.77;;
4569;SDS011;2297;51.442;6.996;2023-07-13T00:04:21;5.18;;;1.80;;
4569;SDS011;2297;51.442;6.996;2023-07-13T00:06:50;4.15;;;1.90;;
4569;SDS011;2297;51.442;6.996;2023-07-13T00:09:18;8.77;;;2.03;;
4569;SDS011;2297;51.442;6.996;2023-07-13T00:11:50;5.10;;;1.98;;
4569;SDS011;2297;51.442;6.996;2023-07-13T00:14:18;4.07;;;1.98;;
4569;SDS011;2297;51.442;6.996;2023-07-13T00:16:45;6.78;;;1.95;;
4569;SDS011;2297;51.442;6.996;2023-07-13T00:19:12;3.90;;;1.80;;
4569;SDS011;2297;51.442;6.996;2023-07-13T00:21:40;5.38;;;1.92;;
4569;SDS011;2297;51.442;6.996;2023-07-13T00:24:07;4.43;;;1.83;;
4569;SDS011;2297;51.442;6.996;2023-07-13T00:26:37;5.22;;;1.75;;
4569;SDS011;2297;51.442;6.996;2023-07-13T00:29:06;4.60;;;1.70;;
4569;SDS011;2297;51.442;6.996;2023-07-13T00:31:34;4.10;;;1.77;;
4569;SDS011;2297;51.442;6.996;2023-07-13T00:34:01;6.60;;;1.70;;
4569;SDS011;2297;51.442;6.996;2023-07-13T00:36:29;3.72;;;1.90;;
4569;SDS011;2297;51.442;6.996;2023-07-13T00:38:56;5.07;;;1.63;;
4569;SDS011;2297;51.442;6.996;2023-07-13T00:41:23;5.03;;;1.70;;
4569;SDS011;2297;51.442;6.996;2023-07-13T00:43:50;4.40;;;1.75;;
4569;SDS011;2297;51.442;6.996;2023-07-13T00:46:20;5.57;;;1.65;;
4569;SDS011;2297;51.442;6.996;2023-07-13T00:48:49;7.50;;;1.52;;
4569;SDS011;2297;51.442;6.996;2023-07-13T00:51:18;5.82;;;2.10;;
4569;SDS011;2297;51.442;6.996;2023-07-13T00:53:48;11.10;;;2.13;;
4569;SDS011;2297;51.442;6.996;2023-07-13T00:56:15;5.32;;;1.90;;
4569;SDS011;2297;51.442;6.996;2023-07-13T00:58:42;7.53;;;2.65;;
4569;SDS011;2297;51.442;6.996;2023-07-13T01:01:09;9.50;;;2.30;;
4569;SDS011;2297;51.442;6.996;2023-07-13T01:03:39;3.88;;;1.65;;
4569;SDS011;2297;51.442;6.996;2023-07-13T01:06:06;3.92;;;1.70;;
4569;SDS011;2297;51.442;6.996;2023-07-13T01:08:34;4.57;;;1.63;;
4569;SDS011;2297;51.442;6.996;2023-07-13T01:11:00;10.50;;;1.83;;
4569;SDS011;2297;51.442;6.996;2023-07-13T01:13:27;4.50;;;1.75;;
4569;SDS011;2297;51.442;6.996;2023-07-13T01:15:55;9.70;;;1.98;;
4569;SDS011;2297;51.442;6.996;2023-07-13T01:18:25;8.00;;;1.73;;
4569;SDS011;2297;51.442;6.996;2023-07-13T01:20:55;3.63;;;1.70;;
4569;SDS011;2297;51.442;6.996;2023-07-13T01:23:23;7.72;;;1.98;;
4569;SDS011;2297;51.442;6.996;2023-07-13T01:25:51;7.78;;;1.77;;
4569;SDS011;2297;51.442;6.996;2023-07-13T01:28:18;3.80;;;1.50;;
4569;SDS011;2297;51.442;6.996;2023-07-13T01:30:46;2.92;;;1.70;;
4569;SDS011;2297;51.442;6.996;2023-07-13T01:33:13;4.30;;;1.77;;
4569;SDS011;2297;51.442;6.996;2023-07-13T01:35:41;5.45;;;1.90;;
4569;SDS011;2297;51.442;6.996;2023-07-13T01:38:10;4.85;;;1.63;;
4569;SDS011;2297;51.442;6.996;2023-07-13T01:40:37;4.57;;;1.80;;
4569;SDS011;2297;51.442;6.996;2023-07-13T01:43:05;8.93;;;2.10;;
4569;SDS011;2297;51.442;6.996;2023-07-13T01:45:32;6.13;;;1.85;;
4569;SDS011;2297;51.442;6.996;2023-07-13T01:47:58;4.05;;;1.60;;
4569;SDS011;2297;51.442;6.996;2023-07-13T01:50:26;3.92;;;1.70;;
4569;SDS011;2297;51.442;6.996;2023-07-13T01:52:53;6.63;;;1.80;;
4569;SDS011;2297;51.442;6.996;2023-07-13T01:55:21;4.53;;;2.17;;
4569;SDS011;2297;51.442;6.996;2023-07-13T01:57:48;4.72;;;1.80;;
4569;SDS011;2297;51.442;6.996;2023-07-13T02:00:15;4.50;;;1.90;;
4569;SDS011;2297;51.442;6.996;2023-07-13T02:02:42;5.57;;;1.65;;
4569;SDS011;2297;51.442;6.996;2023-07-13T02:05:09;7.57;;;2.05;;
4569;SDS011;2297;51.442;6.996;2023-07-13T02:07:36;4.78;;;1.73;;
4569;SDS011;2297;51.442;6.996;2023-07-13T02:10:02;3.72;;;1.80;;
4569;SDS011;2297;51.442;6.996;2023-07-13T02:12:31;2.80;;;1.35;;
4569;SDS011;2297;51.442;6.996;2023-07-13T02:14:57;6.32;;;1.73;;
4569;SDS011;2297;51.442;6.996;2023-07-13T02:17:24;9.68;;;2.00;;
4569;SDS011;2297;51.442;6.996;2023-07-13T02:19:51;5.50;;;1.77;;
4569;SDS011;2297;51.442;6.996;2023-07-13T02:22:20;6.28;;;1.95;;
4569;SDS011;2297;51.442;6.996;2023-07-13T02:24:48;6.32;;;1.77;;
4569;SDS011;2297;51.442;6.996;2023-07-13T02:27:14;6.72;;;1.85;;
4569;SDS011;2297;51.442;6.996;2023-07-13T02:29:42;4.25;;;1.75;;
4569;SDS011;2297;51.442;6.996;2023-07-13T02:32:09;6.32;;;1.95;;
4569;SDS011;2297;51.442;6.996;2023-07-13T02:34:36;4.03;;;1.70;;
4569;SDS011;2297;51.442;6.996;2023-07-13T02:37:03;6.07;;;1.83;;
4569;SDS011;2297;51.442;6.996;2023-07-13T02:39:29;2.53;;;1.48;;
4569;SDS011;2297;51.442;6.996;2023-07-13T02:41:58;9.30;;;1.98;;
4569;SDS011;2297;51.442;6.996;2023-07-13T02:44:25;2.97;;;1.50;;
4569;SDS011;2297;51.442;6.996;2023-07-13T02:46:53;9.35;;;1.77;;
4569;SDS011;2297;51.442;6.996;2023-07-13T02:49:20;7.25;;;1.70;;
4569;SDS011;2297;51.442;6.996;2023-07-13T02:51:47;7.60;;;1.70;;
4569;SDS011;2297;51.442;6.996;2023-07-13T02:54:13;4.95;;;1.67;;
4569;SDS011;2297;51.442;6.996;2023-07-13T02:56:40;3.17;;;1.60;;
4569;SDS011;2297;51.442;6.996;2023-07-13T02:59:08;6.68;;;1.95;;
4569;SDS011;2297;51.442;6.996;2023-07-13T03:01:35;4.60;;;1.80;;
4569;SDS011;2297;51.442;6.996;2023-07-13T03:04:03;4.10;;;1.90;;
4569;SDS011;2297;51.442;6.996;2023-07-13T03:06:30;7.10;;;2.55;;
4569;SDS011;2297;51.442;6.996;2023-07-13T03:08:57;9.45;;;1.90;;
4569;SDS011;2297;51.442;6.996;2023-07-13T03:11:25;6.80;;;1.90;;
4569;SDS011;2297;51.442;6.996;2023-07-13T03:13:52;4.50;;;1.77;;
4569;SDS011;2297;51.442;6.996;2023-07-13T03:16:19;4.90;;;1.95;;
4569;SDS011;2297;51.442;6.996;2023-07-13T03:18:45;6.82;;;2.00;;
4569;SDS011;2297;51.442;6.996;2023-07-13T03:21:14;3.40;;;1.70;;
4569;SDS011;2297;51.442;6.996;2023-07-13T03:23:41;7.05;;;2.25;;
4569;SDS011;2297;51.442;6.996;2023-07-13T03:26:08;7.25;;;2.03;;
4569;SDS011;2297;51.442;6.996;2023-07-13T03:28:37;4.97;;;1.65;;
4569;SDS011;2297;51.442;6.996;2023-07-13T03:31:05;4.72;;;1.80;;
4569;SDS011;2297;51.442;6.996;2023-07-13T03:33:33;5.90;;;2.08;;
4569;SDS011;2297;51.442;6.996;2023-07-13T03:36:01;5.38;;;1.85;;
4569;SDS011;2297;51.442;6.996;2023-07-13T03:38:29;6.47;;;2.05;;
4569;SDS011;2297;51.442;6.996;2023-07-13T03:40:56;6.70;;;1.83;;
4569;SDS011;2297;51.442;6.996;2023-07-13T03:43:23;8.48;;;2.20;;
4569;SDS011;2297;51.442;6.996;2023-07-13T03:45:49;4.05;;;1.83;;
4569;SDS011;2297;51.442;6.996;2023-07-13T03:48:16;6.80;;;1.80;;
4569;SDS011;2297;51.442;6.996;2023-07-13T03:50:42;6.15;;;2.00;;
4569;SDS011;2297;51.442;6.996;2023-07-13T03:53:09;7.20;;;2.13;;
4569;SDS011;2297;51.442;6.996;2023-07-13T03:55:37;4.88;;;1.60;;
4569;SDS011;2297;51.442;6.996;2023-07-13T04:00:54;7.32;;;2.20;;
4569;SDS011;2297;51.442;6.996;2023-07-13T04:03:20;5.70;;;2.15;;
4569;SDS011;2297;51.442;6.996;2023-07-13T04:05:47;4.90;;;1.88;;
4569;SDS011;2297;51.442;6.996;2023-07-13T04:08:14;8.32;;;2.30;;
4569;SDS011;2297;51.442;6.996;2023-07-13T04:10:42;7.28;;;2.42;;
4569;SDS011;2297;51.442;6.996;2023-07-13T04:13:09;4.72;;;2.33;;
4569;SDS011;2297;51.442;6.996;2023-07-13T04:15:36;5.32;;;1.90;;
4569;SDS011;2297;51.442;6.996;2023-07-13T04:18:02;5.50;;;1.90;;
4569;SDS011;2297;51.442;6.996;2023-07-13T04:20:29;7.18;;;1.85;;
4569;SDS011;2297;51.442;6.996;2023-07-13T04:22:56;6.03;;;2.10;;
4569;SDS011;2297;51.442;6.996;2023-07-13T04:25:23;9.02;;;2.45;;
4569;SDS011;2297;51.442;6.996;2023-07-13T04:27:52;4.25;;;1.92;;
4569;SDS011;2297;51.442;6.996;2023-07-13T04:30:19;4.43;;;1.85;;
4569;SDS011;2297;51.442;6.996;2023-07-13T04:32:46;5.45;;;2.03;;
4569;SDS011;2297;51.442;6.996;2023-07-13T04:35:13;7.22;;;2.15;;
4569;SDS011;2297;51.442;6.996;2023-07-13T04:37:40;10.50;;;2.65;;
4569;SDS011;2297;51.442;6.996;2023-07-13T04:40:07;9.35;;;2.63;;
4569;SDS011;2297;51.442;6.996;2023-07-13T04:42:37;6.72;;;2.25;;
4569;SDS011;2297;51.442;6.996;2023-07-13T04:45:05;4.50;;;2.00;;
4569;SDS011;2297;51.442;6.996;2023-07-13T04:47:33;8.50;;;2.42;;
4569;SDS011;2297;51.442;6.996;2023-07-13T04:49:59;7.30;;;2.10;;
4569;SDS011;2297;51.442;6.996;2023-07-13T04:52:26;4.65;;;2.00;;
4569;SDS011;2297;51.442;6.996;2023-07-13T04:54:53;5.57;;;2.00;;
4569;SDS011;2297;51.442;6.996;2023-07-13T04:57:19;3.60;;;2.10;;
4569;SDS011;2297;51.442;6.996;2023-07-13T04:59:46;5.93;;;2.05;;
4569;SDS011;2297;51.442;6.996;2023-07-13T05:02:14;5.07;;;2.47;;
4569;SDS011;2297;51.442;6.996;2023-07-13T05:04:41;7.13;;;2.30;;
4569;SDS011;2297;51.442;6.996;2023-07-13T05:07:08;8.15;;;2.20;;
4569;SDS011;2297;51.442;6.996;2023-07-13T05:09:36;9.00;;;2.22;;
4569;SDS011;2297;51.442;6.996;2023-07-13T05:12:03;6.25;;;2.22;;
4569;SDS011;2297;51.442;6.996;2023-07-13T05:14:29;7.75;;;2.15;;
4569;SDS011;2297;51.442;6.996;2023-07-13T05:16:56;6.18;;;2.17;;
4569;SDS011;2297;51.442;6.996;2023-07-13T05:19:24;6.53;;;1.85;;
4569;SDS011;2297;51.442;6.996;2023-07-13T05:21:51;6.50;;;2.10;;
4569;SDS011;2297;51.442;6.996;2023-07-13T05:24:18;8.80;;;2.20;;
4569;SDS011;2297;51.442;6.996;2023-07-13T05:26:44;8.80;;;2.72;;
4569;SDS011;2297;51.442;6.996;2023-07-13T05:29:11;9.20;;;2.50;;
4569;SDS011;2297;51.442;6.996;2023-07-13T05:31:37;5.55;;;2.38;;
4569;SDS011;2297;51.442;6.996;2023-07-13T05:34:04;8.77;;;2.10;;
4569;SDS011;2297;51.442;6.996;2023-07-13T05:36:32;7.35;;;2.90;;
4569;SDS011;2297;51.442;6.996;2023-07-13T05:38:58;5.80;;;2.00;;
4569;SDS011;2297;51.442;6.996;2023-07-13T05:41:25;6.07;;;2.17;;
4569;SDS011;2297;51.442;6.996;2023-07-13T05:43:52;5.30;;;2.17;;
4569;SDS011;2297;51.442;6.996;2023-07-13T05:46:18;11.55;;;2.60;;
4569;SDS011;2297;51.442;6.996;2023-07-13T05:48:45;7.40;;;2.28;;
4569;SDS011;2297;51.442;6.996;2023-07-13T05:51:11;9.45;;;2.30;;
4569;SDS011;2297;51.442;6.996;2023-07-13T05:53:40;6.43;;;2.28;;
4569;SDS011;2297;51.442;6.996;2023-07-13T05:56:06;7.60;;;2.33;;
4569;SDS011;2297;51.442;6.996;2023-07-13T05:58:33;7.93;;;2.28;;
4569;SDS011;2297;51.442;6.996;2023-07-13T06:01:00;9.13;;;2.58;;
4569;SDS011;2297;51.442;6.996;2023-07-13T06:03:29;8.50;;;2.38;;
4569;SDS011;2297;51.442;6.996;2023-07-13T06:05:56;6.22;;;2.40;;
4569;SDS011;2297;51.442;6.996;2023-07-13T06:08:22;10.02;;;3.08;;
4569;SDS011;2297;51.442;6.996;2023-07-13T06:10:50;9.48;;;2.80;;
4569;SDS011;2297;51.442;6.996;2023-07-13T06:13:17;10.43;;;2.90;;
4569;SDS011;2297;51.442;6.996;2023-07-13T06:15:47;8.75;;;3.08;;
4569;SDS011;2297;51.442;6.996;2023-07-13T06:18:14;9.32;;;2.80;;
4569;SDS011;2297;51.442;6.996;2023-07-13T06:20:41;11.15;;;3.53;;
4569;SDS011;2297;51.442;6.996;2023-07-13T06:23:08;7.55;;;2.80;;
4569;SDS011;2297;51.442;6.996;2023-07-13T06:25:34;7.50;;;3.15;;
4569;SDS011;2297;51.442;6.996;2023-07-13T06:28:02;10.52;;;3.03;;
4569;SDS011;2297;51.442;6.996;2023-07-13T06:30:29;10.82;;;2.97;;
4569;SDS011;2297;51.442;6.996;2023-07-13T06:32:57;10.93;;;3.22;;
4569;SDS011;2297;51.442;6.996;2023-07-13T06:35:23;10.23;;;3.20;;
4569;SDS011;2297;51.442;6.996;2023-07-13T06:37:50;12.60;;;2.78;;
4569;SDS011;2297;51.442;6.996;2023-07-13T06:40:17;8.05;;;3.03;;
4569;SDS011;2297;51.442;6.996;2023-07-13T06:42:52;13.95;;;3.55;;
4569;SDS011;2297;51.442;6.996;2023-07-13T06:45:20;9.38;;;3.10;;
4569;SDS011;2297;51.442;6.996;2023-07-13T06:47:47;9.02;;;3.40;;
4569;SDS011;2297;51.442;6.996;2023-07-13T06:50:14;11.30;;;3.83;;
4569;SDS011;2297;51.442;6.996;2023-07-13T06:52:41;7.25;;;3.10;;
4569;SDS011;2297;51.442;6.996;2023-07-13T06:55:08;13.35;;;4.30;;
4569;SDS011;2297;51.442;6.996;2023-07-13T06:57:35;7.63;;;3.25;;
4569;SDS011;2297;51.442;6.996;2023-07-13T07:00:01;11.43;;;3.75;;
4569;SDS011;2297;51.442;6.996;2023-07-13T07:02:29;10.50;;;3.72;;
4569;SDS011;2297;51.442;6.996;2023-07-13T07:04:56;8.25;;;3.28;;
4569;SDS011;2297;51.442;6.996;2023-07-13T07:07:23;12.65;;;3.42;;
4569;SDS011;2297;51.442;6.996;2023-07-13T07:09:50;10.93;;;3.35;;
4569;SDS011;2297;51.442;6.996;2023-07-13T07:12:17;8.85;;;3.03;;
4569;SDS011;2297;51.442;6.996;2023-07-13T07:14:43;7.38;;;3.30;;
4569;SDS011;2297;51.442;6.996;2023-07-13T07:17:10;13.45;;;3.80;;
4569;SDS011;2297;51.442;6.996;2023-07-13T07:19:38;11.75;;;4.15;;
4569;SDS011;2297;51.442;6.996;2023-07-13T07:22:05;6.32;;;2.75;;
4569;SDS011;2297;51.442;6.996;2023-07-13T07:24:32;8.82;;;3.67;;
4569;SDS011;2297;51.442;6.996;2023-07-13T07:26:58;8.85;;;3.58;;
4569;SDS011;2297;51.442;6.996;2023-07-13T07:29:25;12.10;;;3.80;;
4569;SDS011;2297;51.442;6.996;2023-07-13T07:31:52;14.13;;;3.78;;
4569;SDS011;2297;51.442;6.996;2023-07-13T07:34:19;6.85;;;3.58;;
4569;SDS011;2297;51.442;6.996;2023-07-13T07:36:47;11.02;;;3.78;;
4569;SDS011;2297;51.442;6.996;2023-07-13T07:39:14;10.10;;;3.28;;
4569;SDS011;2297;51.442;6.996;2023-07-13T07:41:41;11.52;;;3.80;;
4569;SDS011;2297;51.442;6.996;2023-07-13T07:44:08;13.02;;;3.80;;
4569;SDS011;2297;51.442;6.996;2023-07-13T07:46:35;12.48;;;3.25;;
4569;SDS011;2297;51.442;6.996;2023-07-13T07:49:02;10.65;;;3.40;;
4569;SDS011;2297;51.442;6.996;2023-07-13T07:51:29;8.15;;;3.58;;
4569;SDS011;2297;51.442;6.996;2023-07-13T07:53:57;9.20;;;3.58;;
4569;SDS011;2297;51.442;6.996;2023-07-13T07:56:24;11.95;;;3.70;;
4569;SDS011;2297;51.442;6.996;2023-07-13T07:58:51;11.95;;;4.18;;
4569;SDS011;2297;51.442;6.996;2023-07-13T08:01:18;9.98;;;3.80;;
4569;SDS011;2297;51.442;6.996;2023-07-13T08:03:45;10.40;;;3.67;;
4569;SDS011;2297;51.442;6.996;2023-07-13T08:06:11;10.68;;;4.00;;
4569;SDS011;2297;51.442;6.996;2023-07-13T08:08:38;11.25;;;3.58;;
4569;SDS011;2297;51.442;6.996;2023-07-13T08:11:06;11.73;;;4.07;;
4569;SDS011;2297;51.442;6.996;2023-07-13T08:13:34;11.88;;;3.83;;
4569;SDS011;2297;51.442;6.996;2023-07-13T08:16:03;9.05;;;3.97;;
4569;SDS011;2297;51.442;6.996;2023-07-13T08:18:31;10.25;;;3.53;;
4569;SDS011;2297;51.442;6.996;2023-07-13T08:20:57;7.68;;;3.30;;
4569;SDS011;2297;51.442;6.996;2023-07-13T08:23:24;12.27;;;3.67;;
4569;SDS011;2297;51.442;6.996;2023-07-13T08:25:52;10.35;;;3.88;;
4569;SDS011;2297;51.442;6.996;2023-07-13T08:28:21;11.93;;;4.40;;
4569;SDS011;2297;51.442;6.996;2023-07-13T08:30:48;7.40;;;3.63;;
4569;SDS011;2297;51.442;6.996;2023-07-13T08:33:16;9.95;;;3.75;;
4569;SDS011;2297;51.442;6.996;2023-07-13T08:35:45;10.80;;;4.30;;
4569;SDS011;2297;51.442;6.996;2023-07-13T08:38:12;11.05;;;3.78;;
4569;SDS011;2297;51.442;6.996;2023-07-13T08:40:38;8.68;;;3.72;;
4569;SDS011;2297;51.442;6.996;2023-07-13T08:43:07;10.18;;;3.45;;
4569;SDS011;2297;51.442;6.996;2023-07-13T08:45:42;9.40;;;3.55;;
4569;SDS011;2297;51.442;6.996;2023-07-13T08:48:11;10.57;;;3.67;;
4569;SDS011;2297;51.442;6.996;2023-07-13T08:50:43;11.00;;;3.63;;
4569;SDS011;2297;51.442;6.996;2023-07-13T08:55:45;6.43;;;3.47;;
4569;SDS011;2297;51.442;6.996;2023-07-13T08:58:12;7.03;;;3.17;;
4569;SDS011;2297;51.442;6.996;2023-07-13T09:00:51;8.80;;;3.53;;
4569;SDS011;2297;51.442;6.996;2023-07-13T09:03:26;9.73;;;3.80;;
4569;SDS011;2297;51.442;6.996;2023-07-13T09:05:56;12.90;;;4.63;;
4569;SDS011;2297;51.442;6.996;2023-07-13T09:08:37;11.82;;;3.42;;
4569;SDS011;2297;51.442;6.996;2023-07-13T09:11:14;6.30;;;3.30;;
4569;SDS011;2297;51.442;6.996;2023-07-13T09:13:52;12.32;;;4.38;;
4569;SDS011;2297;51.442;6.996;2023-07-13T09:16:28;10.85;;;3.40;;
4569;SDS011;2297;51.442;6.996;2023-07-13T09:18:56;10.00;;;3.25;;
4569;SDS011;2297;51.442;6.996;2023-07-13T09:21:29;7.97;;;3.07;;
4569;SDS011;2297;51.442;6.996;2023-07-13T09:23:59;9.88;;;3.13;;
4569;SDS011;2297;51.442;6.996;2023-07-13T09:26:28;10.30;;;3.78;;
4569;SDS011;2297;51.442;6.996;2023-07-13T09:28:59;5.10;;;3.08;;
4569;SDS011;2297;51.442;6.996;2023-07-13T09:31:38;8.25;;;3.45;;
4569;SDS011;2297;51.442;6.996;2023-07-13T09:34:09;7.25;;;3.03;;
4569;SDS011;2297;51.442;6.996;2023-07-13T09:36:37;7.25;;;3.15;;
4569;SDS011;2297;51.442;6.996;2023-07-13T09:39:05;8.07;;;3.10;;
4569;SDS011;2297;51.442;6.996;2023-07-13T09:41:41;9.63;;;3.35;;
4569;SDS011;2297;51.442;6.996;2023-07-13T09:44:17;9.00;;;3.20;;
4569;SDS011;2297;51.442;6.996;2023-07-13T09:46:55;7.90;;;2.95;;
4569;SDS011;2297;51.442;6.996;2023-07-13T09:49:23;9.23;;;2.95;;
4569;SDS011;2297;51.442;6.996;2023-07-13T09:51:57;11.55;;;3.60;;
4569;SDS011;2297;51.442;6.996;2023-07-13T09:54:25;8.23;;;3.40;;
4569;SDS011;2297;51.442;6.996;2023-07-13T09:56:55;16.52;;;3.22;;
4569;SDS011;2297;51.442;6.996;2023-07-13T09:59:23;9.50;;;3.67;;
4569;SDS011;2297;51.442;6.996;2023-07-13T10:01:54;9.20;;;3.22;;
4569;SDS011;2297;51.442;6.996;2023-07-13T10:04:26;10.30;;;3.30;;
4569;SDS011;2297;51.442;6.996;2023-07-13T10:07:04;10.73;;;3.00;;
4569;SDS011;2297;51.442;6.996;2023-07-13T10:09:32;10.20;;;3.55;;
4569;SDS011;2297;51.442;6.996;2023-07-13T10:11:58;8.65;;;3.40;;
4569;SDS011;2297;51.442;6.996;2023-07-13T10:14:25;7.13;;;3.28;;
4569;SDS011;2297;51.442;6.996;2023-07-13T10:16:52;9.18;;;3.50;;
4569;SDS011;2297;51.442;6.996;2023-07-13T10:19:27;9.40;;;3.20;;
4569;SDS011;2297;51.442;6.996;2023-07-13T10:21:58;10.15;;;3.08;;
4569;SDS011;2297;51.442;6.996;2023-07-13T10:24:29;14.60;;;3.90;;
4569;SDS011;2297;51.442;6.996;2023-07-13T10:27:00;10.48;;;3.70;;
4569;SDS011;2297;51.442;6.996;2023-07-13T10:29:30;9.77;;;3.38;;
4569;SDS011;2297;51.442;6.996;2023-07-13T10:32:03;8.23;;;3.42;;
4569;SDS011;2297;51.442;6.996;2023-07-13T10:34:36;8.55;;;3.08;;
4569;SDS011;2297;51.442;6.996;2023-07-13T10:37:04;9.05;;;3.08;;
4569;SDS011;2297;51.442;6.996;2023-07-13T10:39:31;6.90;;;3.05;;
4569;SDS011;2297;51.442;6.996;2023-07-13T10:42:01;7.65;;;3.15;;
4569;SDS011;2297;51.442;6.996;2023-07-13T10:44:32;8.00;;;3.30;;
4569;SDS011;2297;51.442;6.996;2023-07-13T10:47:01;10.82;;;3.67;;
4569;SDS011;2297;51.442;6.996;2023-07-13T10:49:33;8.13;;;2.80;;
4569;SDS011;2297;51.442;6.996;2023-07-13T10:52:02;7.20;;;3.03;;
4569;SDS011;2297;51.442;6.996;2023-07-13T10:54:31;8.15;;;3.17;;
4569;SDS011;2297;51.442;6.996;2023-07-13T10:57:14;10.25;;;3.67;;
4569;SDS011;2297;51.442;6.996;2023-07-13T10:59:45;7.00;;;3.10;;
4569;SDS011;2297;51.442;6.996;2023-07-13T11:02:17;7.15;;;2.90;;
4569;SDS011;2297;51.442;6.996;2023-07-13T11:04:51;10.43;;;3.35;;
4569;SDS011;2297;51.442;6.996;2023-07-13T11:07:20;8.70;;;3.13;;
4569;SDS011;2297;51.442;6.996;2023-07-13T11:09:49;8.98;;;3.17;;
4569;SDS011;2297;51.442;6.996;2023-07-13T11:12:27;7.82;;;2.92;;
4569;SDS011;2297;51.442;6.996;2023-07-13T11:15:15;7.80;;;2.90;;
4569;SDS011;2297;51.442;6.996;2023-07-13T11:17:59;8.02;;;2.92;;
4569;SDS011;2297;51.442;6.996;2023-07-13T11:20:33;6.38;;;2.90;;
4569;SDS011;2297;51.442;6.996;2023-07-13T11:23:18;4.78;;;2.72;;
4569;SDS011;2297;51.442;6.996;2023-07-13T11:25:52;6.47;;;2.58;;
4569;SDS011;2297;51.442;6.996;2023-07-13T11:28:21;8.85;;;3.10;;
4569;SDS011;2297;51.442;6.996;2023-07-13T11:30:58;4.68;;;2.88;;
4569;SDS011;2297;51.442;6.996;2023-07-13T11:33:53;6.18;;;2.55;;
4569;SDS011;2297;51.442;6.996;2023-07-13T11:36:24;9.68;;;3.08;;
4569;SDS011;2297;51.442;6.996;2023-07-13T11:38:58;13.07;;;2.80;;
4569;SDS011;2297;51.442;6.996;2023-07-13T11:41:28;7.43;;;2.60;;
4569;SDS011;2297;51.442;6.996;2023-07-13T11:44:01;8.13;;;2.88;;
4569;SDS011;2297;51.442;6.996;2023-07-13T11:46:32;6.20;;;3.00;;
4569;SDS011;2297;51.442;6.996;2023-07-13T11:49:01;5.93;;;3.08;;
4569;SDS011;2297;51.442;6.996;2023-07-13T11:51:31;10.93;;;2.83;;
4569;SDS011;2297;51.442;6.996;2023-07-13T11:54:02;7.82;;;2.35;;
4569;SDS011;2297;51.442;6.996;2023-07-13T11:56:31;4.43;;;2.10;;
4569;SDS011;2297;51.442;6.996;2023-07-13T11:59:03;10.40;;;3.65;;
4569;SDS011;2297;51.442;6.996;2023-07-13T12:01:32;5.82;;;2.60;;
4569;SDS011;2297;51.442;6.996;2023-07-13T12:04:02;6.72;;;2.33;;
4569;SDS011;2297;51.442;6.996;2023-07-13T12:06:32;5.93;;;2.13;;
4569;SDS011;2297;51.442;6.996;2023-07-13T12:09:02;4.97;;;1.90;;
4569;SDS011;2297;51.442;6.996;2023-07-13T12:11:38;6.65;;;2.70;;
4569;SDS011;2297;51.442;6.996;2023-07-13T12:14:10;7.45;;;2.63;;
4569;SDS011;2297;51.442;6.996;2023-07-13T12:16:40;7.60;;;2.22;;
4569;SDS011;2297;51.442;6.996;2023-07-13T12:19:13;8.20;;;2.08;;
4569;SDS011;2297;51.442;6.996;2023-07-13T12:21:44;6.68;;;3.00;;
4569;SDS011;2297;51.442;6.996;2023-07-13T12:24:13;5.03;;;2.13;;
4569;SDS011;2297;51.442;6.996;2023-07-13T12:26:42;6.43;;;2.13;;
4569;SDS011;2297;51.442;6.996;2023-07-13T12:29:11;7.18;;;2.45;;
4569;SDS011;2297;51.442;6.996;2023-07-13T12:31:43;4.90;;;1.85;;
4569;SDS011;2297;51.442;6.996;2023-07-13T12:34:12;5.70;;;2.20;;
4569;SDS011;2297;51.442;6.996;2023-07-13T12:36:45;4.38;;;2.13;;
4569;SDS011;2297;51.442;6.996;2023-07-13T12:39:15;3.17;;;2.10;;
4569;SDS011;2297;51.442;6.996;2023-07-13T12:41:44;5.93;;;2.20;;
4569;SDS011;2297;51.442;6.996;2023-07-13T12:44:12;6.70;;;2.25;;
4569;SDS011;2297;51.442;6.996;2023-07-13T12:46:50;3.63;;;1.95;;
4569;SDS011;2297;51.442;6.996;2023-07-13T12:49:22;6.13;;;2.13;;
4569;SDS011;2297;51.442;6.996;2023-07-13T12:51:55;3.95;;;1.90;;
4569;SDS011;2297;51.442;6.996;2023-07-13T12:54:22;6.65;;;2.10;;
4569;SDS011;2297;51.442;6.996;2023-07-13T12:56:49;7.78;;;2.30;;
4569;SDS011;2297;51.442;6.996;2023-07-13T12:59:18;4.68;;;2.40;;
4569;SDS011;2297;51.442;6.996;2023-07-13T13:01:47;10.52;;;2.40;;
4569;SDS011;2297;51.442;6.996;2023-07-13T13:04:15;3.30;;;1.95;;
4569;SDS011;2297;51.442;6.996;2023-07-13T13:06:47;6.50;;;2.00;;
4569;SDS011;2297;51.442;6.996;2023-07-13T13:09:16;5.47;;;2.25;;
4569;SDS011;2297;51.442;6.996;2023-07-13T13:11:45;5.93;;;2.05;;
4569;SDS011;2297;51.442;6.996;2023-07-13T13:14:11;4.75;;;2.05;;
4569;SDS011;2297;51.442;6.996;2023-07-13T13:16:43;5.97;;;1.80;;
4569;SDS011;2297;51.442;6.996;2023-07-13T13:19:14;5.82;;;2.30;;
4569;SDS011;2297;51.442;6.996;2023-07-13T13:21:43;6.25;;;2.20;;
4569;SDS011;2297;51.442;6.996;2023-07-13T13:24:13;8.95;;;2.30;;
4569;SDS011;2297;51.442;6.996;2023-07-13T13:26:41;5.13;;;2.20;;
4569;SDS011;2297;51.442;6.996;2023-07-13T13:29:12;7.18;;;2.30;;
4569;SDS011;2297;51.442;6.996;2023-07-13T13:31:40;4.63;;;2.10;;
4569;SDS011;2297;51.442;6.996;2023-07-13T13:34:07;6.50;;;2.42;;
4569;SDS011;2297;51.442;6.996;2023-07-13T13:36:35;9.38;;;2.30;;
4569;SDS011;2297;51.442;6.996;2023-07-13T13:39:02;4.82;;;2.30;;
4569;SDS011;2297;51.442;6.996;2023-07-13T13:41:33;4.28;;;2.22;;
4569;SDS011;2297;51.442;6.996;2023-07-13T13:43:59;5.78;;;2.60;;
4569;SDS011;2297;51.442;6.996;2023-07-13T13:46:26;6.07;;;2.38;;
4569;SDS011;2297;51.442;6.996;2023-07-13T13:48:54;5.03;;;3.00;;
4569;SDS011;2297;51.442;6.996;2023-07-13T13:51:22;4.93;;;2.45;;
4569;SDS011;2297;51.442;6.996;2023-07-13T13:53:50;8.95;;;2.88;;
4569;SDS011;2297;51.442;6.996;2023-07-13T13:56:18;5.70;;;2.67;;
4569;SDS011;2297;51.442;6.996;2023-07-13T13:58:47;3.85;;;2.35;;
4569;SDS011;2297;51.442;6.996;2023-07-13T14:01:14;5.20;;;2.22;;
4569;SDS011;2297;51.442;6.996;2023-07-13T14:03:44;4.93;;;2.28;;
4569;SDS011;2297;51.442;6.996;2023-07-13T14:06:11;5.72;;;2.53;;
4569;SDS011;2297;51.442;6.996;2023-07-13T14:08:38;5.82;;;2.55;;
4569;SDS011;2297;51.442;6.996;2023-07-13T14:11:05;4.05;;;2.53;;
4569;SDS011;2297;51.442;6.996;2023-07-13T14:13:38;4.10;;;2.40;;
4569;SDS011;2297;51.442;6.996;2023-07-13T14:16:10;6.05;;;2.60;;
4569;SDS011;2297;51.442;6.996;2023-07-13T14:18:38;7.32;;;2.40;;
4569;SDS011;2297;51.442;6.996;2023-07-13T14:21:08;5.18;;;2.33;;
4569;SDS011;2297;51.442;6.996;2023-07-13T14:23:38;8.52;;;2.70;;
4569;SDS011;2297;51.442;6.996;2023-07-13T14:26:07;4.53;;;2.63;;
4569;SDS011;2297;51.442;6.996;2023-07-13T14:28:38;5.28;;;2.97;;
4569;SDS011;2297;51.442;6.996;2023-07-13T14:31:08;6.85;;;3.00;;
4569;SDS011;2297;51.442;6.996;2023-07-13T14:33:36;9.98;;;3.30;;
4569;SDS011;2297;51.442;6.996;2023-07-13T14:36:02;5.88;;;2.67;;
4569;SDS011;2297;51.442;6.996;2023-07-13T14:38:39;6.22;;;2.95;;
4569;SDS011;2297;51.442;6.996;2023-07-13T14:41:07;5.63;;;2.70;;
4569;SDS011;2297;51.442;6.996;2023-07-13T14:43:43;4.85;;;3.00;;
4569;SDS011;2297;51.442;6.996;2023-07-13T14:46:11;5.35;;;3.20;;
4569;SDS011;2297;51.442;6.996;2023-07-13T14:48:50;9.98;;;3.15;;
4569;SDS011;2297;51.442;6.996;2023-07-13T14:51:17;11.10;;;3.30;;
4569;SDS011;2297;51.442;6.996;2023-07-13T14:53:43;4.70;;;3.08;;
4569;SDS011;2297;51.442;6.996;2023-07-13T14:56:11;9.27;;;3.45;;
4569;SDS011;2297;51.442;6.996;2023-07-13T14:58:39;4.25;;;2.70;;
4569;SDS011;2297;51.442;6.996;2023-07-13T15:01:08;7.30;;;3.08;;
4569;SDS011;2297;51.442;6.996;2023-07-13T15:03:39;3.55;;;2.60;;
4569;SDS011;2297;51.442;6.996;2023-07-13T15:06:10;6.38;;;3.00;;
4569;SDS011;2297;51.442;6.996;2023-07-13T15:08:38;5.55;;;2.75;;
4569;SDS011;2297;51.442;6.996;2023-07-13T15:11:06;4.88;;;2.85;;
4569;SDS011;2297;51.442;6.996;2023-07-13T15:13:33;7.97;;;2.90;;
4569;SDS011;2297;51.442;6.996;2023-07-13T15:16:00;6.35;;;2.90;;
4569;SDS011;2297;51.442;6.996;2023-07-13T15:18:27;9.38;;;3.42;;
4569;SDS011;2297;51.442;6.996;2023-07-13T15:20:55;5.13;;;2.85;;
4569;SDS011;2297;51.442;6.996;2023-07-13T15:23:24;7.85;;;2.80;;
4569;SDS011;2297;51.442;6.996;2023-07-13T15:25:52;5.13;;;2.75;;
4569;SDS011;2297;51.442;6.996;2023-07-13T15:28:18;5.72;;;2.55;;